Dodson, Oregon
Current Conditions -  °F | °C
As of 10:59 AM on Saturday 25 Oct 2014 (Local Time) from K4S2 Reporting Station
Overcast Overcast  
Wind Chill: 54°   Ceiling: 1300
Heat Index: 54°   Visibility: 10mi
Dew Point: 48°   Wind: 3mph
Humidity: 82%   Direction: 70°ENE
Pressure: 29.58"   Gusts: NA
Location:  45.6281°N, 121.806°W
Report Text: K4S2 251759Z AUTO 07003KT 10SM OVC013 12/09 A2958 RMK AO2 SLP032 T01200090
Loading
Personal Weather Stations






























Interactive Weather Map
Tropical Storm Tracking
New forecast layout! Learn more

10-Day Weather Forecast

Advertisements
Track Severe Weather on mobile